sensor_id;sensor_type;location;lat;lon;timestamp;temperature;humidity
16666;DHT22;8446;50.998;6.250;2024-01-15T00:00:45;0.50;99.90
16666;DHT22;8446;50.998;6.250;2024-01-15T00:03:17;0.50;99.90
16666;DHT22;8446;50.998;6.250;2024-01-15T00:05:49;0.60;99.90
16666;DHT22;8446;50.998;6.250;2024-01-15T00:08:21;0.60;99.90
16666;DHT22;8446;50.998;6.250;2024-01-15T00:10:53;0.60;99.90
16666;DHT22;8446;50.998;6.250;2024-01-15T00:13:24;0.60;99.90
16666;DHT22;8446;50.998;6.250;2024-01-15T00:15:58;0.60;99.90
16666;DHT22;8446;50.998;6.250;2024-01-15T00:18:29;0.60;99.90
16666;DHT22;8446;50.998;6.250;2024-01-15T00:21:02;0.60;99.90
16666;DHT22;8446;50.998;6.250;2024-01-15T00:23:34;0.70;99.90
16666;DHT22;8446;50.998;6.250;2024-01-15T00:26:05;0.70;99.90
16666;DHT22;8446;50.998;6.250;2024-01-15T00:28:37;0.70;99.90
16666;DHT22;8446;50.998;6.250;2024-01-15T00:31:11;0.70;99.90
16666;DHT22;8446;50.998;6.250;2024-01-15T00:33:42;0.70;99.90
16666;DHT22;8446;50.998;6.250;2024-01-15T00:36:14;0.70;99.90
16666;DHT22;8446;50.998;6.250;2024-01-15T00:38:47;0.70;99.90
16666;DHT22;8446;50.998;6.250;2024-01-15T00:41:19;0.60;99.90
16666;DHT22;8446;50.998;6.250;2024-01-15T00:43:50;0.60;99.90
16666;DHT22;8446;50.998;6.250;2024-01-15T00:46:23;0.70;99.90
16666;DHT22;8446;50.998;6.250;2024-01-15T00:48:55;0.70;99.90
16666;DHT22;8446;50.998;6.250;2024-01-15T00:51:27;0.70;99.90
16666;DHT22;8446;50.998;6.250;2024-01-15T00:53:58;0.70;99.90
16666;DHT22;8446;50.998;6.250;2024-01-15T00:56:30;0.70;99.90
16666;DHT22;8446;50.998;6.250;2024-01-15T00:59:02;0.80;99.90
16666;DHT22;8446;50.998;6.250;2024-01-15T01:01:35;0.80;99.90
16666;DHT22;8446;50.998;6.250;2024-01-15T01:04:08;0.80;99.90
16666;DHT22;8446;50.998;6.250;2024-01-15T01:06:40;0.70;99.90
16666;DHT22;8446;50.998;6.250;2024-01-15T01:09:11;0.70;99.90
16666;DHT22;8446;50.998;6.250;2024-01-15T01:11:43;0.60;99.90
16666;DHT22;8446;50.998;6.250;2024-01-15T01:14:15;0.60;99.90
16666;DHT22;8446;50.998;6.250;2024-01-15T01:16:48;0.60;99.90
16666;DHT22;8446;50.998;6.250;2024-01-15T01:19:20;0.60;99.90
16666;DHT22;8446;50.998;6.250;2024-01-15T01:21:51;0.60;99.90
16666;DHT22;8446;50.998;6.250;2024-01-15T01:24:23;0.60;99.90
16666;DHT22;8446;50.998;6.250;2024-01-15T01:26:55;0.60;99.90
16666;DHT22;8446;50.998;6.250;2024-01-15T01:29:27;0.60;99.90
16666;DHT22;8446;50.998;6.250;2024-01-15T01:32:00;0.60;99.90
16666;DHT22;8446;50.998;6.250;2024-01-15T01:34:33;0.60;99.90
16666;DHT22;8446;50.998;6.250;2024-01-15T01:37:12;0.60;99.90
16666;DHT22;8446;50.998;6.250;2024-01-15T01:39:44;0.70;99.90
16666;DHT22;8446;50.998;6.250;2024-01-15T01:42:16;0.70;99.90
16666;DHT22;8446;50.998;6.250;2024-01-15T01:44:47;0.70;99.90
16666;DHT22;8446;50.998;6.250;2024-01-15T01:47:21;0.70;99.90
16666;DHT22;8446;50.998;6.250;2024-01-15T01:49:53;0.80;99.90
16666;DHT22;8446;50.998;6.250;2024-01-15T01:52:24;0.80;99.90
16666;DHT22;8446;50.998;6.250;2024-01-15T01:54:57;0.80;99.90
16666;DHT22;8446;50.998;6.250;2024-01-15T01:57:31;0.80;99.90
16666;DHT22;8446;50.998;6.250;2024-01-15T02:00:05;0.80;99.90
16666;DHT22;8446;50.998;6.250;2024-01-15T02:02:39;0.80;99.90
16666;DHT22;8446;50.998;6.250;2024-01-15T02:05:12;0.80;99.90
16666;DHT22;8446;50.998;6.250;2024-01-15T02:07:45;0.80;99.90
16666;DHT22;8446;50.998;6.250;2024-01-15T02:10:17;0.80;99.90
16666;DHT22;8446;50.998;6.250;2024-01-15T02:12:49;0.80;99.90
16666;DHT22;8446;50.998;6.250;2024-01-15T02:15:21;0.70;99.90
16666;DHT22;8446;50.998;6.250;2024-01-15T02:18:01;0.70;99.90
16666;DHT22;8446;50.998;6.250;2024-01-15T02:20:33;0.70;99.90
16666;DHT22;8446;50.998;6.250;2024-01-15T02:23:11;0.70;99.90
16666;DHT22;8446;50.998;6.250;2024-01-15T02:25:44;0.70;99.90
16666;DHT22;8446;50.998;6.250;2024-01-15T02:28:17;0.70;99.90
16666;DHT22;8446;50.998;6.250;2024-01-15T02:30:49;0.70;99.90
16666;DHT22;8446;50.998;6.250;2024-01-15T02:33:20;0.70;99.90
16666;DHT22;8446;50.998;6.250;2024-01-15T02:35:52;0.70;99.90
16666;DHT22;8446;50.998;6.250;2024-01-15T02:38:25;0.60;99.90
16666;DHT22;8446;50.998;6.250;2024-01-15T02:40:57;0.60;99.90
16666;DHT22;8446;50.998;6.250;2024-01-15T02:43:28;0.70;99.90
16666;DHT22;8446;50.998;6.250;2024-01-15T02:46:00;0.70;99.90
16666;DHT22;8446;50.998;6.250;2024-01-15T02:48:32;0.70;99.90
16666;DHT22;8446;50.998;6.250;2024-01-15T02:51:05;0.70;99.90
16666;DHT22;8446;50.998;6.250;2024-01-15T02:53:39;0.80;99.90
16666;DHT22;8446;50.998;6.250;2024-01-15T02:56:11;0.80;99.90
16666;DHT22;8446;50.998;6.250;2024-01-15T02:58:42;0.80;99.90
16666;DHT22;8446;50.998;6.250;2024-01-15T03:01:14;0.80;99.90
16666;DHT22;8446;50.998;6.250;2024-01-15T03:03:46;0.80;99.90
16666;DHT22;8446;50.998;6.250;2024-01-15T03:06:17;0.80;99.90
16666;DHT22;8446;50.998;6.250;2024-01-15T03:08:50;0.80;99.90
16666;DHT22;8446;50.998;6.250;2024-01-15T03:11:22;0.80;99.90
16666;DHT22;8446;50.998;6.250;2024-01-15T03:13:54;0.80;99.90
16666;DHT22;8446;50.998;6.250;2024-01-15T03:16:26;0.80;99.90
16666;DHT22;8446;50.998;6.250;2024-01-15T03:18:57;0.80;99.90
16666;DHT22;8446;50.998;6.250;2024-01-15T03:21:29;0.80;99.90
16666;DHT22;8446;50.998;6.250;2024-01-15T03:24:02;0.90;99.90
16666;DHT22;8446;50.998;6.250;2024-01-15T03:26:34;0.90;99.90
16666;DHT22;8446;50.998;6.250;2024-01-15T03:29:06;0.80;99.90
16666;DHT22;8446;50.998;6.250;2024-01-15T03:31:38;0.80;99.90
16666;DHT22;8446;50.998;6.250;2024-01-15T03:34:10;0.80;99.90
16666;DHT22;8446;50.998;6.250;2024-01-15T03:36:42;0.80;99.90
16666;DHT22;8446;50.998;6.250;2024-01-15T03:39:15;0.80;99.90
16666;DHT22;8446;50.998;6.250;2024-01-15T03:41:47;0.80;99.90
16666;DHT22;8446;50.998;6.250;2024-01-15T03:44:19;0.90;99.90
16666;DHT22;8446;50.998;6.250;2024-01-15T03:46:50;0.90;99.90
16666;DHT22;8446;50.998;6.250;2024-01-15T03:49:22;0.90;99.90
16666;DHT22;8446;50.998;6.250;2024-01-15T03:51:54;1.00;99.90
16666;DHT22;8446;50.998;6.250;2024-01-15T03:54:27;1.00;99.90
16666;DHT22;8446;50.998;6.250;2024-01-15T03:56:58;1.00;99.90
16666;DHT22;8446;50.998;6.250;2024-01-15T03:59:30;1.00;99.90
16666;DHT22;8446;50.998;6.250;2024-01-15T04:02:02;1.00;99.90
16666;DHT22;8446;50.998;6.250;2024-01-15T04:04:34;1.00;99.90
16666;DHT22;8446;50.998;6.250;2024-01-15T04:07:06;1.00;99.90
16666;DHT22;8446;50.998;6.250;2024-01-15T04:09:39;1.00;99.90
16666;DHT22;8446;50.998;6.250;2024-01-15T04:12:11;1.00;99.90
16666;DHT22;8446;50.998;6.250;2024-01-15T04:14:42;1.00;99.90
16666;DHT22;8446;50.998;6.250;2024-01-15T04:17:14;1.00;99.90
16666;DHT22;8446;50.998;6.250;2024-01-15T04:19:46;1.00;99.90
16666;DHT22;8446;50.998;6.250;2024-01-15T04:22:18;1.00;99.90
16666;DHT22;8446;50.998;6.250;2024-01-15T04:24:51;0.90;99.90
16666;DHT22;8446;50.998;6.250;2024-01-15T04:27:23;0.80;99.90
16666;DHT22;8446;50.998;6.250;2024-01-15T04:29:54;0.70;99.90
16666;DHT22;8446;50.998;6.250;2024-01-15T04:32:26;0.70;99.90
16666;DHT22;8446;50.998;6.250;2024-01-15T04:34:58;0.70;99.90
16666;DHT22;8446;50.998;6.250;2024-01-15T04:37:30;0.60;99.90
16666;DHT22;8446;50.998;6.250;2024-01-15T04:40:04;0.60;99.90
16666;DHT22;8446;50.998;6.250;2024-01-15T04:42:35;0.60;99.90
16666;DHT22;8446;50.998;6.250;2024-01-15T04:45:08;0.80;99.90
16666;DHT22;8446;50.998;6.250;2024-01-15T04:47:40;0.80;99.90
16666;DHT22;8446;50.998;6.250;2024-01-15T04:50:12;0.70;99.90
16666;DHT22;8446;50.998;6.250;2024-01-15T04:52:44;0.80;99.90
16666;DHT22;8446;50.998;6.250;2024-01-15T04:55:17;0.80;99.90
16666;DHT22;8446;50.998;6.250;2024-01-15T04:57:49;0.80;99.90
16666;DHT22;8446;50.998;6.250;2024-01-15T05:00:20;0.80;99.90
16666;DHT22;8446;50.998;6.250;2024-01-15T05:02:52;0.90;99.90
16666;DHT22;8446;50.998;6.250;2024-01-15T05:05:24;0.90;99.90
16666;DHT22;8446;50.998;6.250;2024-01-15T05:07:56;0.90;99.90
16666;DHT22;8446;50.998;6.250;2024-01-15T05:10:29;0.90;99.90
16666;DHT22;8446;50.998;6.250;2024-01-15T05:13:01;0.90;99.90
16666;DHT22;8446;50.998;6.250;2024-01-15T05:15:32;0.90;99.90
16666;DHT22;8446;50.998;6.250;2024-01-15T05:18:04;0.90;99.90
16666;DHT22;8446;50.998;6.250;2024-01-15T05:20:36;0.90;99.90
16666;DHT22;8446;50.998;6.250;2024-01-15T05:23:08;0.90;99.90
16666;DHT22;8446;50.998;6.250;2024-01-15T05:25:41;1.00;99.90
16666;DHT22;8446;50.998;6.250;2024-01-15T05:28:13;1.00;99.90
16666;DHT22;8446;50.998;6.250;2024-01-15T05:30:45;1.00;99.90
16666;DHT22;8446;50.998;6.250;2024-01-15T05:33:17;0.90;99.90
16666;DHT22;8446;50.998;6.250;2024-01-15T05:35:49;0.90;99.90
16666;DHT22;8446;50.998;6.250;2024-01-15T05:38:21;0.90;99.90
16666;DHT22;8446;50.998;6.250;2024-01-15T05:40:54;0.80;99.90
16666;DHT22;8446;50.998;6.250;2024-01-15T05:43:25;0.90;99.90
16666;DHT22;8446;50.998;6.250;2024-01-15T05:45:57;0.90;99.90
16666;DHT22;8446;50.998;6.250;2024-01-15T05:48:29;0.80;99.90
16666;DHT22;8446;50.998;6.250;2024-01-15T05:51:00;0.80;99.90
16666;DHT22;8446;50.998;6.250;2024-01-15T05:53:32;0.80;99.90
16666;DHT22;8446;50.998;6.250;2024-01-15T05:56:06;0.80;99.90
16666;DHT22;8446;50.998;6.250;2024-01-15T05:58:37;0.90;99.90
16666;DHT22;8446;50.998;6.250;2024-01-15T06:01:09;0.90;99.90
16666;DHT22;8446;50.998;6.250;2024-01-15T06:03:41;0.90;99.90
16666;DHT22;8446;50.998;6.250;2024-01-15T06:06:13;0.90;99.90
16666;DHT22;8446;50.998;6.250;2024-01-15T06:08:44;0.90;99.90
16666;DHT22;8446;50.998;6.250;2024-01-15T06:11:17;0.90;99.90
16666;DHT22;8446;50.998;6.250;2024-01-15T06:13:49;0.90;99.90
16666;DHT22;8446;50.998;6.250;2024-01-15T06:16:21;0.90;99.90
16666;DHT22;8446;50.998;6.250;2024-01-15T06:18:53;0.90;99.90
16666;DHT22;8446;50.998;6.250;2024-01-15T06:21:24;0.90;99.90
16666;DHT22;8446;50.998;6.250;2024-01-15T06:23:56;0.90;99.90
16666;DHT22;8446;50.998;6.250;2024-01-15T06:26:29;0.90;99.90
16666;DHT22;8446;50.998;6.250;2024-01-15T06:29:01;0.90;99.90
16666;DHT22;8446;50.998;6.250;2024-01-15T06:31:33;1.00;99.90
16666;DHT22;8446;50.998;6.250;2024-01-15T06:34:05;0.90;99.90
16666;DHT22;8446;50.998;6.250;2024-01-15T06:36:36;1.00;99.90
16666;DHT22;8446;50.998;6.250;2024-01-15T06:39:08;1.00;99.90
16666;DHT22;8446;50.998;6.250;2024-01-15T06:41:41;1.00;99.90
16666;DHT22;8446;50.998;6.250;2024-01-15T06:44:14;1.00;99.90
16666;DHT22;8446;50.998;6.250;2024-01-15T06:46:46;1.00;99.90
16666;DHT22;8446;50.998;6.250;2024-01-15T06:49:19;1.10;99.90
16666;DHT22;8446;50.998;6.250;2024-01-15T06:51:50;1.00;99.90
16666;DHT22;8446;50.998;6.250;2024-01-15T06:54:22;1.10;99.90
16666;DHT22;8446;50.998;6.250;2024-01-15T06:56:57;1.10;99.90
16666;DHT22;8446;50.998;6.250;2024-01-15T06:59:29;1.10;99.90
16666;DHT22;8446;50.998;6.250;2024-01-15T07:02:04;1.10;99.90
16666;DHT22;8446;50.998;6.250;2024-01-15T07:04:36;1.10;99.90
16666;DHT22;8446;50.998;6.250;2024-01-15T07:07:09;1.00;99.90
16666;DHT22;8446;50.998;6.250;2024-01-15T07:09:40;1.10;99.90
16666;DHT22;8446;50.998;6.250;2024-01-15T07:12:14;1.10;99.90
16666;DHT22;8446;50.998;6.250;2024-01-15T07:14:46;1.10;99.90
16666;DHT22;8446;50.998;6.250;2024-01-15T07:17:18;1.00;99.90
16666;DHT22;8446;50.998;6.250;2024-01-15T07:19:50;1.10;99.90
16666;DHT22;8446;50.998;6.250;2024-01-15T07:22:21;1.10;99.90
16666;DHT22;8446;50.998;6.250;2024-01-15T07:24:53;1.10;99.90
16666;DHT22;8446;50.998;6.250;2024-01-15T07:27:27;1.00;99.90
16666;DHT22;8446;50.998;6.250;2024-01-15T07:29:58;1.00;99.90
16666;DHT22;8446;50.998;6.250;2024-01-15T07:32:30;1.10;99.90
16666;DHT22;8446;50.998;6.250;2024-01-15T07:35:02;1.10;99.90
16666;DHT22;8446;50.998;6.250;2024-01-15T07:37:34;1.10;99.90
16666;DHT22;8446;50.998;6.250;2024-01-15T07:40:06;1.10;99.90
16666;DHT22;8446;50.998;6.250;2024-01-15T07:42:40;1.10;99.90
16666;DHT22;8446;50.998;6.250;2024-01-15T07:45:13;1.10;99.90
16666;DHT22;8446;50.998;6.250;2024-01-15T07:47:44;1.10;99.90
16666;DHT22;8446;50.998;6.250;2024-01-15T07:50:16;1.10;99.90
16666;DHT22;8446;50.998;6.250;2024-01-15T07:52:48;1.10;99.90
16666;DHT22;8446;50.998;6.250;2024-01-15T07:55:20;1.10;99.90
16666;DHT22;8446;50.998;6.250;2024-01-15T07:57:53;1.00;99.90
16666;DHT22;8446;50.998;6.250;2024-01-15T08:00:29;1.10;99.90
16666;DHT22;8446;50.998;6.250;2024-01-15T08:03:00;1.00;99.90
16666;DHT22;8446;50.998;6.250;2024-01-15T08:05:33;1.00;99.90
16666;DHT22;8446;50.998;6.250;2024-01-15T08:08:05;1.00;99.90
16666;DHT22;8446;50.998;6.250;2024-01-15T08:10:37;1.00;99.90
16666;DHT22;8446;50.998;6.250;2024-01-15T08:13:10;1.00;99.90
16666;DHT22;8446;50.998;6.250;2024-01-15T08:15:42;0.90;99.90
16666;DHT22;8446;50.998;6.250;2024-01-15T08:18:13;0.90;99.90
16666;DHT22;8446;50.998;6.250;2024-01-15T08:20:45;1.00;99.90
16666;DHT22;8446;50.998;6.250;2024-01-15T08:23:17;1.00;99.90
16666;DHT22;8446;50.998;6.250;2024-01-15T08:25:50;1.00;99.90
16666;DHT22;8446;50.998;6.250;2024-01-15T08:28:24;1.00;99.90
16666;DHT22;8446;50.998;6.250;2024-01-15T08:30:55;1.00;99.90
16666;DHT22;8446;50.998;6.250;2024-01-15T08:33:27;1.00;99.90
16666;DHT22;8446;50.998;6.250;2024-01-15T08:35:59;1.00;99.90
16666;DHT22;8446;50.998;6.250;2024-01-15T08:38:31;1.00;99.90
16666;DHT22;8446;50.998;6.250;2024-01-15T08:41:02;1.00;99.90
16666;DHT22;8446;50.998;6.250;2024-01-15T08:43:36;1.00;99.90
16666;DHT22;8446;50.998;6.250;2024-01-15T08:46:07;1.00;99.90
16666;DHT22;8446;50.998;6.250;2024-01-15T08:48:39;1.00;99.90
16666;DHT22;8446;50.998;6.250;2024-01-15T08:51:11;0.90;99.90
16666;DHT22;8446;50.998;6.250;2024-01-15T08:53:42;0.90;99.90
16666;DHT22;8446;50.998;6.250;2024-01-15T08:56:14;0.90;99.90
16666;DHT22;8446;50.998;6.250;2024-01-15T08:58:47;0.80;99.90
16666;DHT22;8446;50.998;6.250;2024-01-15T09:01:19;0.80;99.90
16666;DHT22;8446;50.998;6.250;2024-01-15T09:03:50;0.80;99.90
16666;DHT22;8446;50.998;6.250;2024-01-15T09:06:22;0.80;99.90
16666;DHT22;8446;50.998;6.250;2024-01-15T09:08:54;0.90;99.90
16666;DHT22;8446;50.998;6.250;2024-01-15T09:11:26;0.80;99.90
16666;DHT22;8446;50.998;6.250;2024-01-15T09:13:59;0.90;99.90
16666;DHT22;8446;50.998;6.250;2024-01-15T09:16:31;0.90;99.90
16666;DHT22;8446;50.998;6.250;2024-01-15T09:19:02;1.00;99.90
16666;DHT22;8446;50.998;6.250;2024-01-15T09:21:34;1.00;99.90
16666;DHT22;8446;50.998;6.250;2024-01-15T09:24:06;0.90;99.90
16666;DHT22;8446;50.998;6.250;2024-01-15T09:26:38;1.00;99.90
16666;DHT22;8446;50.998;6.250;2024-01-15T09:29:11;0.90;99.90
16666;DHT22;8446;50.998;6.250;2024-01-15T09:31:44;0.90;99.90
16666;DHT22;8446;50.998;6.250;2024-01-15T09:34:16;0.90;99.90
16666;DHT22;8446;50.998;6.250;2024-01-15T09:36:47;0.90;99.90
16666;DHT22;8446;50.998;6.250;2024-01-15T09:39:19;0.90;99.90
16666;DHT22;8446;50.998;6.250;2024-01-15T09:41:52;0.90;99.90
16666;DHT22;8446;50.998;6.250;2024-01-15T09:44:25;0.90;99.90
16666;DHT22;8446;50.998;6.250;2024-01-15T09:46:58;1.00;99.90
16666;DHT22;8446;50.998;6.250;2024-01-15T09:49:30;1.00;99.90
16666;DHT22;8446;50.998;6.250;2024-01-15T09:52:02;1.00;99.90
16666;DHT22;8446;50.998;6.250;2024-01-15T09:54:35;1.00;99.90
16666;DHT22;8446;50.998;6.250;2024-01-15T09:57:07;0.90;99.90
16666;DHT22;8446;50.998;6.250;2024-01-15T09:59:42;0.90;99.90
16666;DHT22;8446;50.998;6.250;2024-01-15T10:02:14;0.90;99.90
16666;DHT22;8446;50.998;6.250;2024-01-15T10:04:49;0.80;99.90
16666;DHT22;8446;50.998;6.250;2024-01-15T10:07:21;0.80;99.90
16666;DHT22;8446;50.998;6.250;2024-01-15T10:09:53;0.80;99.90
16666;DHT22;8446;50.998;6.250;2024-01-15T10:12:24;0.80;99.90
16666;DHT22;8446;50.998;6.250;2024-01-15T10:14:58;0.80;99.90
16666;DHT22;8446;50.998;6.250;2024-01-15T10:17:30;0.80;99.90
16666;DHT22;8446;50.998;6.250;2024-01-15T10:20:02;0.80;99.90
16666;DHT22;8446;50.998;6.250;2024-01-15T10:22:35;0.80;99.90
16666;DHT22;8446;50.998;6.250;2024-01-15T10:25:10;0.80;99.90
16666;DHT22;8446;50.998;6.250;2024-01-15T10:27:42;0.80;99.90
16666;DHT22;8446;50.998;6.250;2024-01-15T10:30:15;0.80;99.90
16666;DHT22;8446;50.998;6.250;2024-01-15T10:32:57;0.80;99.90
16666;DHT22;8446;50.998;6.250;2024-01-15T10:35:30;0.80;99.90
16666;DHT22;8446;50.998;6.250;2024-01-15T10:38:02;0.70;99.90
16666;DHT22;8446;50.998;6.250;2024-01-15T10:40:34;0.70;99.90
16666;DHT22;8446;50.998;6.250;2024-01-15T10:43:06;0.70;99.90
16666;DHT22;8446;50.998;6.250;2024-01-15T10:45:39;0.70;99.90
16666;DHT22;8446;50.998;6.250;2024-01-15T10:48:11;0.70;99.90
16666;DHT22;8446;50.998;6.250;2024-01-15T10:50:44;0.70;99.90
16666;DHT22;8446;50.998;6.250;2024-01-15T10:53:17;0.70;99.90
16666;DHT22;8446;50.998;6.250;2024-01-15T10:55:50;0.70;99.90
16666;DHT22;8446;50.998;6.250;2024-01-15T10:58:23;0.70;99.90
16666;DHT22;8446;50.998;6.250;2024-01-15T11:00:57;0.70;99.90
16666;DHT22;8446;50.998;6.250;2024-01-15T11:03:29;0.80;99.90
16666;DHT22;8446;50.998;6.250;2024-01-15T11:06:00;0.80;99.90
16666;DHT22;8446;50.998;6.250;2024-01-15T11:08:34;0.80;99.90
16666;DHT22;8446;50.998;6.250;2024-01-15T11:11:06;0.90;99.90
16666;DHT22;8446;50.998;6.250;2024-01-15T11:13:42;0.90;99.90
16666;DHT22;8446;50.998;6.250;2024-01-15T11:16:16;0.90;99.90
16666;DHT22;8446;50.998;6.250;2024-01-15T11:19:05;0.90;99.90
16666;DHT22;8446;50.998;6.250;2024-01-15T11:21:42;0.90;99.90
16666;DHT22;8446;50.998;6.250;2024-01-15T11:24:34;1.00;99.90
16666;DHT22;8446;50.998;6.250;2024-01-15T11:27:08;1.00;99.90
16666;DHT22;8446;50.998;6.250;2024-01-15T11:29:40;1.10;99.90
16666;DHT22;8446;50.998;6.250;2024-01-15T11:32:13;1.20;99.90
16666;DHT22;8446;50.998;6.250;2024-01-15T11:34:56;1.40;99.90
16666;DHT22;8446;50.998;6.250;2024-01-15T11:37:56;1.50;99.90
16666;DHT22;8446;50.998;6.250;2024-01-15T11:40:22;1.50;99.90
16666;DHT22;8446;50.998;6.250;2024-01-15T11:42:54;1.90;99.90
16666;DHT22;8446;50.998;6.250;2024-01-15T11:45:27;1.70;99.90
16666;DHT22;8446;50.998;6.250;2024-01-15T11:48:18;1.60;99.90
16666;DHT22;8446;50.998;6.250;2024-01-15T11:50:52;1.60;99.90
16666;DHT22;8446;50.998;6.250;2024-01-15T11:53:31;1.60;99.90
16666;DHT22;8446;50.998;6.250;2024-01-15T11:56:11;1.60;99.90
16666;DHT22;8446;50.998;6.250;2024-01-15T11:58:43;1.50;99.90
16666;DHT22;8446;50.998;6.250;2024-01-15T12:01:15;1.50;99.90
16666;DHT22;8446;50.998;6.250;2024-01-15T12:03:49;1.40;99.90
16666;DHT22;8446;50.998;6.250;2024-01-15T12:06:20;1.50;99.90
16666;DHT22;8446;50.998;6.250;2024-01-15T12:09:05;1.50;99.90
16666;DHT22;8446;50.998;6.250;2024-01-15T12:15:07;1.50;99.90
16666;DHT22;8446;50.998;6.250;2024-01-15T12:17:39;1.50;99.90
16666;DHT22;8446;50.998;6.250;2024-01-15T12:20:13;1.50;99.90
16666;DHT22;8446;50.998;6.250;2024-01-15T12:22:46;1.50;99.90
16666;DHT22;8446;50.998;6.250;2024-01-15T12:25:18;1.60;99.90
16666;DHT22;8446;50.998;6.250;2024-01-15T12:27:51;1.60;99.90
16666;DHT22;8446;50.998;6.250;2024-01-15T12:30:23;1.60;99.90
16666;DHT22;8446;50.998;6.250;2024-01-15T12:32:54;1.70;99.90
16666;DHT22;8446;50.998;6.250;2024-01-15T12:35:28;1.60;99.90
16666;DHT22;8446;50.998;6.250;2024-01-15T12:38:00;1.60;99.90
16666;DHT22;8446;50.998;6.250;2024-01-15T12:40:34;1.50;99.90
16666;DHT22;8446;50.998;6.250;2024-01-15T12:43:05;1.60;99.90
16666;DHT22;8446;50.998;6.250;2024-01-15T12:45:38;1.60;99.90
16666;DHT22;8446;50.998;6.250;2024-01-15T12:48:09;1.50;99.90
16666;DHT22;8446;50.998;6.250;2024-01-15T12:50:44;1.50;99.90
16666;DHT22;8446;50.998;6.250;2024-01-15T12:53:16;1.50;99.90
16666;DHT22;8446;50.998;6.250;2024-01-15T12:55:48;1.50;99.90
16666;DHT22;8446;50.998;6.250;2024-01-15T12:58:19;1.50;99.90
16666;DHT22;8446;50.998;6.250;2024-01-15T13:00:51;1.50;99.90
16666;DHT22;8446;50.998;6.250;2024-01-15T13:03:23;1.50;99.90
16666;DHT22;8446;50.998;6.250;2024-01-15T13:05:56;1.40;99.90
16666;DHT22;8446;50.998;6.250;2024-01-15T13:08:28;1.40;99.90
16666;DHT22;8446;50.998;6.250;2024-01-15T13:11:00;1.30;99.90
16666;DHT22;8446;50.998;6.250;2024-01-15T13:13:32;1.30;99.90
16666;DHT22;8446;50.998;6.250;2024-01-15T13:16:05;1.40;99.90
16666;DHT22;8446;50.998;6.250;2024-01-15T13:18:37;1.30;99.90
16666;DHT22;8446;50.998;6.250;2024-01-15T13:21:10;1.30;99.90
16666;DHT22;8446;50.998;6.250;2024-01-15T13:23:43;1.40;99.90
16666;DHT22;8446;50.998;6.250;2024-01-15T13:26:14;1.30;99.90
16666;DHT22;8446;50.998;6.250;2024-01-15T13:28:49;1.30;99.90
16666;DHT22;8446;50.998;6.250;2024-01-15T13:31:20;1.30;99.90
16666;DHT22;8446;50.998;6.250;2024-01-15T13:33:52;1.30;99.90
16666;DHT22;8446;50.998;6.250;2024-01-15T13:36:27;1.30;99.90
16666;DHT22;8446;50.998;6.250;2024-01-15T13:38:59;1.30;99.90
16666;DHT22;8446;50.998;6.250;2024-01-15T13:41:31;1.30;99.90
16666;DHT22;8446;50.998;6.250;2024-01-15T13:44:02;1.30;99.90
16666;DHT22;8446;50.998;6.250;2024-01-15T13:46:34;1.30;99.90
16666;DHT22;8446;50.998;6.250;2024-01-15T13:49:06;1.30;99.90
16666;DHT22;8446;50.998;6.250;2024-01-15T13:51:41;1.30;99.90
16666;DHT22;8446;50.998;6.250;2024-01-15T13:54:13;1.30;99.90
16666;DHT22;8446;50.998;6.250;2024-01-15T13:56:44;1.30;99.90
16666;DHT22;8446;50.998;6.250;2024-01-15T13:59:17;1.40;99.90
16666;DHT22;8446;50.998;6.250;2024-01-15T14:01:49;1.40;99.90
16666;DHT22;8446;50.998;6.250;2024-01-15T14:04:21;1.40;99.90
16666;DHT22;8446;50.998;6.250;2024-01-15T14:06:54;1.40;99.90
16666;DHT22;8446;50.998;6.250;2024-01-15T14:09:26;1.40;99.90
16666;DHT22;8446;50.998;6.250;2024-01-15T14:11:58;1.40;99.90
16666;DHT22;8446;50.998;6.250;2024-01-15T14:14:30;1.40;99.90
16666;DHT22;8446;50.998;6.250;2024-01-15T14:17:02;1.40;99.90
16666;DHT22;8446;50.998;6.250;2024-01-15T14:19:34;1.40;99.90
16666;DHT22;8446;50.998;6.250;2024-01-15T14:22:07;1.40;99.90
16666;DHT22;8446;50.998;6.250;2024-01-15T14:24:39;1.40;99.90
16666;DHT22;8446;50.998;6.250;2024-01-15T14:27:11;1.40;99.90
16666;DHT22;8446;50.998;6.250;2024-01-15T14:29:42;1.40;99.90
16666;DHT22;8446;50.998;6.250;2024-01-15T14:32:14;1.20;99.90
16666;DHT22;8446;50.998;6.250;2024-01-15T14:34:46;1.10;99.90
16666;DHT22;8446;50.998;6.250;2024-01-15T14:37:20;1.00;99.90
16666;DHT22;8446;50.998;6.250;2024-01-15T14:39:52;0.90;99.90
16666;DHT22;8446;50.998;6.250;2024-01-15T14:42:24;0.90;99.90
16666;DHT22;8446;50.998;6.250;2024-01-15T14:44:56;0.80;99.90
16666;DHT22;8446;50.998;6.250;2024-01-15T14:47:28;0.80;99.90
16666;DHT22;8446;50.998;6.250;2024-01-15T14:50:00;0.70;99.90
16666;DHT22;8446;50.998;6.250;2024-01-15T14:52:33;0.80;99.90
16666;DHT22;8446;50.998;6.250;2024-01-15T14:55:06;0.70;99.90
16666;DHT22;8446;50.998;6.250;2024-01-15T14:57:39;0.70;99.90
16666;DHT22;8446;50.998;6.250;2024-01-15T15:00:11;0.70;99.90
16666;DHT22;8446;50.998;6.250;2024-01-15T15:02:44;0.80;99.90
16666;DHT22;8446;50.998;6.250;2024-01-15T15:05:15;0.80;99.90
16666;DHT22;8446;50.998;6.250;2024-01-15T15:07:49;0.80;99.90
16666;DHT22;8446;50.998;6.250;2024-01-15T15:10:21;0.80;99.90
16666;DHT22;8446;50.998;6.250;2024-01-15T15:12:52;0.80;99.90
16666;DHT22;8446;50.998;6.250;2024-01-15T15:15:24;0.80;99.90
16666;DHT22;8446;50.998;6.250;2024-01-15T15:17:56;0.80;99.90
16666;DHT22;8446;50.998;6.250;2024-01-15T15:20:27;0.90;99.90
16666;DHT22;8446;50.998;6.250;2024-01-15T15:23:00;0.90;99.90
16666;DHT22;8446;50.998;6.250;2024-01-15T15:25:33;0.90;99.90
16666;DHT22;8446;50.998;6.250;2024-01-15T15:28:05;0.90;99.90
16666;DHT22;8446;50.998;6.250;2024-01-15T15:30:39;0.90;99.90
16666;DHT22;8446;50.998;6.250;2024-01-15T15:33:10;0.90;99.90
16666;DHT22;8446;50.998;6.250;2024-01-15T15:35:42;1.00;99.90
16666;DHT22;8446;50.998;6.250;2024-01-15T15:38:15;1.00;99.90
16666;DHT22;8446;50.998;6.250;2024-01-15T15:40:47;1.00;99.90
16666;DHT22;8446;50.998;6.250;2024-01-15T15:43:19;0.90;99.90
16666;DHT22;8446;50.998;6.250;2024-01-15T15:45:51;1.00;99.90
16666;DHT22;8446;50.998;6.250;2024-01-15T15:48:23;1.00;99.90
16666;DHT22;8446;50.998;6.250;2024-01-15T15:50:54;1.00;99.90
16666;DHT22;8446;50.998;6.250;2024-01-15T15:53:28;1.00;99.90
16666;DHT22;8446;50.998;6.250;2024-01-15T15:55:59;1.10;99.90
16666;DHT22;8446;50.998;6.250;2024-01-15T15:58:31;1.10;99.90
16666;DHT22;8446;50.998;6.250;2024-01-15T16:01:03;1.10;99.90
16666;DHT22;8446;50.998;6.250;2024-01-15T16:03:35;1.10;99.90
16666;DHT22;8446;50.998;6.250;2024-01-15T16:06:07;1.10;99.90
16666;DHT22;8446;50.998;6.250;2024-01-15T16:08:40;1.20;99.90
16666;DHT22;8446;50.998;6.250;2024-01-15T16:11:12;1.10;99.90
16666;DHT22;8446;50.998;6.250;2024-01-15T16:13:43;1.10;99.90
16666;DHT22;8446;50.998;6.250;2024-01-15T16:16:15;1.10;99.90
16666;DHT22;8446;50.998;6.250;2024-01-15T16:18:47;1.00;99.90
16666;DHT22;8446;50.998;6.250;2024-01-15T16:21:19;1.10;99.90
16666;DHT22;8446;50.998;6.250;2024-01-15T16:23:52;1.10;99.90
16666;DHT22;8446;50.998;6.250;2024-01-15T16:26:24;1.10;99.90
16666;DHT22;8446;50.998;6.250;2024-01-15T16:28:56;1.00;99.90
16666;DHT22;8446;50.998;6.250;2024-01-15T16:31:27;1.00;99.90
16666;DHT22;8446;50.998;6.250;2024-01-15T16:33:59;1.10;99.90
16666;DHT22;8446;50.998;6.250;2024-01-15T16:36:31;1.00;99.90
16666;DHT22;8446;50.998;6.250;2024-01-15T16:39:04;1.00;99.90